Time;durP1;ratioP1;P1;durP2;ratioP2;P2;SDS_P1;SDS_P2;PMS_P1;PMS_P2;Temp;Humidity;BMP_temperature;BMP_pressure;BME280_temperature;BME280_humidity;BME280_pressure;Samples;Min_cycle;Max_cycle;Signal;HPM_P1;HPM_P2
2022/01/23 00:01:49;;;;;;;;;;;20.10;42.90;;;;;;5113528;27;20592;-46
2022/01/23 00:04:16;;;;;;;;;;;20.10;42.90;;;;;;5114090;27;19988;-46
2022/01/23 00:06:45;;;;;;;;;;;20.10;42.90;;;;;;5112436;28;20013;-49
2022/01/23 00:09:14;;;;;;;;;;;20.10;42.90;;;;;;5144785;27;19924;-46
2022/01/23 00:11:47;;;;;;;;;;;20.10;42.90;;;;;;5133653;27;19934;-48
2022/01/23 00:17:20;;;;;;;;;;;20.10;43.00;;;;;;5131836;27;19923;-46
2022/01/23 00:19:47;;;;;;;;;;;20.10;42.90;;;;;;5113638;27;20407;-44
2022/01/23 00:22:14;;;;;;;;;;;20.10;43.00;;;;;;5115561;28;19924;-44
2022/01/23 00:30:23;;;;;;;;;;;20.10;43.00;;;;;;5107692;28;20061;-44
2022/01/23 00:32:52;;;;;;;;;;;20.10;43.00;;;;;;5128062;27;20376;-46
2022/01/23 00:35:18;;;;;;;;;;;20.10;43.00;;;;;;5120317;28;19949;-46
2022/01/23 00:37:45;;;;;;;;;;;20.10;43.00;;;;;;5114455;28;19949;-45
2022/01/23 00:40:12;;;;;;;;;;;20.10;43.00;;;;;;5115095;28;20017;-45
2022/01/23 00:42:39;;;;;;;;;;;20.10;43.00;;;;;;5113442;28;20129;-44
2022/01/23 00:45:23;;;;;;;;;;;20.10;43.00;;;;;;5119765;28;19923;-45
2022/01/23 00:47:54;;;;;;;;;;;20.10;43.00;;;;;;5108357;28;19938;-46
2022/01/23 00:50:21;;;;;;;;;;;20.10;43.00;;;;;;5106831;28;19934;-45
2022/01/23 00:52:47;;;;;;;;;;;20.10;43.00;;;;;;5147886;27;19938;-46
2022/01/23 00:55:14;;;;;;;;;;;20.10;43.00;;;;;;5116007;27;19949;-46
2022/01/23 00:57:41;;;;;;;;;;;20.10;43.00;;;;;;5131060;27;20422;-46
2022/01/23 01:00:08;;;;;;;;;;;20.10;43.00;;;;;;5116381;27;19931;-46
2022/01/23 01:02:35;;;;;;;;;;;20.10;43.00;;;;;;5117865;27;19927;-44
2022/01/23 01:05:03;;;;;;;;;;;20.10;43.10;;;;;;5137772;27;19947;-42
2022/01/23 01:07:30;;;;;;;;;;;20.10;43.10;;;;;;5116582;27;19930;-43
2022/01/23 01:10:01;;;;;;;;;;;20.10;43.00;;;;;;5118499;27;19927;-45
2022/01/23 01:12:35;;;;;;;;;;;20.10;43.10;;;;;;5118444;27;19927;-48
2022/01/23 01:15:26;;;;;;;;;;;20.10;43.10;;;;;;5115943;27;19955;-46
2022/01/23 01:31:40;;;;;;;;;;;20.10;43.10;;;;;;5117712;27;19928;-43
2022/01/23 01:34:10;;;;;;;;;;;20.10;43.10;;;;;;5112963;27;20280;-43
2022/01/23 01:36:46;;;;;;;;;;;20.10;43.10;;;;;;5137005;27;19931;-48
2022/01/23 01:39:13;;;;;;;;;;;20.10;43.10;;;;;;5118559;27;19934;-45
2022/01/23 01:41:40;;;;;;;;;;;20.10;43.10;;;;;;5121643;27;20306;-43
2022/01/23 01:44:07;;;;;;;;;;;20.10;43.20;;;;;;5136675;27;19924;-45
2022/01/23 01:46:34;;;;;;;;;;;20.10;43.10;;;;;;5121034;27;19962;-42
2022/01/23 01:49:01;;;;;;;;;;;20.10;43.10;;;;;;5117994;27;19959;-48
2022/01/23 01:51:31;;;;;;;;;;;20.10;43.10;;;;;;5120045;27;19978;-42
2022/01/23 01:54:06;;;;;;;;;;;20.10;43.10;;;;;;5115124;27;19927;-44
2022/01/23 01:56:39;;;;;;;;;;;20.10;43.20;;;;;;5133795;27;19984;-44
2022/01/23 01:59:17;;;;;;;;;;;20.10;43.20;;;;;;5115861;27;20392;-45
2022/01/23 02:09:58;;;;;;;;;;;20.10;43.20;;;;;;5117765;27;20397;-47
2022/01/23 02:12:57;;;;;;;;;;;20.10;43.20;;;;;;5117467;27;19927;-48
2022/01/23 02:18:27;;;;;;;;;;;20.10;43.20;;;;;;5117477;27;19953;-43
2022/01/23 02:51:32;;;;;;;;;;;20.10;43.20;;;;;;5116597;27;20034;-47
2022/01/23 02:54:27;;;;;;;;;;;20.10;43.20;;;;;;5131028;27;19953;-50
2022/01/23 02:56:57;;;;;;;;;;;20.10;43.20;;;;;;5135775;27;19923;-47
2022/01/23 02:59:26;;;;;;;;;;;20.10;43.20;;;;;;5113948;27;20380;-44
2022/01/23 03:02:09;;;;;;;;;;;20.10;43.20;;;;;;5114467;27;19924;-46
2022/01/23 03:04:38;;;;;;;;;;;20.10;43.20;;;;;;5150338;27;19928;-49
2022/01/23 03:07:19;;;;;;;;;;;20.10;43.20;;;;;;5117077;27;20541;-45
2022/01/23 03:09:56;;;;;;;;;;;20.10;43.20;;;;;;5131949;27;20107;-46
2022/01/23 03:15:10;;;;;;;;;;;20.10;43.20;;;;;;5109785;27;19928;-46
2022/01/23 03:31:43;;;;;;;;;;;20.10;43.20;;;;;;5075495;28;19924;-49
2022/01/23 03:34:10;;;;;;;;;;;20.10;43.20;;;;;;5095199;27;19963;-45
2022/01/23 03:36:38;;;;;;;;;;;20.10;43.20;;;;;;5125343;27;20071;-47
2022/01/23 03:39:07;;;;;;;;;;;20.10;43.20;;;;;;5118831;27;19959;-45
2022/01/23 03:41:35;;;;;;;;;;;20.10;43.20;;;;;;5116551;27;19998;-47
2022/01/23 03:44:04;;;;;;;;;;;20.10;43.20;;;;;;5152728;27;19927;-47
2022/01/23 03:46:50;;;;;;;;;;;20.10;43.20;;;;;;5116552;27;19972;-44
2022/01/23 03:49:31;;;;;;;;;;;20.10;43.20;;;;;;5117929;27;19928;-52
2022/01/23 03:51:59;;;;;;;;;;;20.10;43.20;;;;;;5100628;27;19987;-47
2022/01/23 03:54:27;;;;;;;;;;;20.10;43.10;;;;;;5108472;27;19938;-43
2022/01/23 03:56:56;;;;;;;;;;;20.10;43.20;;;;;;5145505;27;20007;-48
2022/01/23 03:59:22;;;;;;;;;;;20.10;43.20;;;;;;5116558;27;20018;-43
2022/01/23 04:01:49;;;;;;;;;;;20.10;43.20;;;;;;5114182;27;19997;-43
2022/01/23 04:04:28;;;;;;;;;;;20.10;43.10;;;;;;5114280;27;19935;-45
2022/01/23 04:06:55;;;;;;;;;;;20.10;43.20;;;;;;5107827;27;20585;-43
2022/01/23 04:09:21;;;;;;;;;;;20.10;43.20;;;;;;5115549;27;19924;-45
2022/01/23 04:11:49;;;;;;;;;;;20.10;43.10;;;;;;5114786;27;19924;-48
2022/01/23 04:14:19;;;;;;;;;;;20.10;43.10;;;;;;5114444;27;19988;-44
2022/01/23 04:17:16;;;;;;;;;;;20.10;43.10;;;;;;5112425;28;20435;-44
2022/01/23 04:19:57;;;;;;;;;;;20.10;43.10;;;;;;5149124;27;19927;-44
2022/01/23 04:33:43;;;;;;;;;;;20.10;43.10;;;;;;5082192;28;20314;-46
2022/01/23 05:01:04;;;;;;;;;;;20.10;43.10;;;;;;5106662;28;19935;-46
2022/01/23 05:06:25;;;;;;;;;;;20.10;43.10;;;;;;5113477;28;19930;-45
2022/01/23 05:08:52;;;;;;;;;;;20.10;43.10;;;;;;5118635;27;20013;-45
2022/01/23 05:11:19;;;;;;;;;;;20.10;43.20;;;;;;5118204;28;19934;-48
2022/01/23 05:13:46;;;;;;;;;;;20.10;43.10;;;;;;5128368;27;19935;-45
2022/01/23 05:16:13;;;;;;;;;;;20.10;43.10;;;;;;5114400;28;19988;-46
2022/01/23 05:18:41;;;;;;;;;;;20.10;43.20;;;;;;5115377;27;19930;-47
2022/01/23 05:21:22;;;;;;;;;;;20.10;43.10;;;;;;5116974;28;20330;-48
2022/01/23 05:23:48;;;;;;;;;;;20.10;43.10;;;;;;5111525;27;19969;-45
2022/01/23 05:26:15;;;;;;;;;;;20.10;43.10;;;;;;5113788;28;19951;-47
2022/01/23 05:28:42;;;;;;;;;;;20.10;43.10;;;;;;5114604;28;19931;-46
2022/01/23 05:31:09;;;;;;;;;;;20.10;43.10;;;;;;5114889;28;19924;-46
2022/01/23 05:33:37;;;;;;;;;;;20.10;43.20;;;;;;5133417;28;19933;-42
2022/01/23 05:36:06;;;;;;;;;;;20.10;43.10;;;;;;5107957;28;19934;-49
2022/01/23 05:38:33;;;;;;;;;;;20.10;43.10;;;;;;5111377;27;19923;-45
2022/01/23 05:41:01;;;;;;;;;;;20.10;43.10;;;;;;5119063;27;19982;-45
2022/01/23 05:43:28;;;;;;;;;;;20.10;43.10;;;;;;5115359;27;19931;-46
2022/01/23 05:45:55;;;;;;;;;;;20.10;43.10;;;;;;5116907;27;19927;-46
2022/01/23 05:48:21;;;;;;;;;;;20.10;43.10;;;;;;5117595;27;20380;-45
2022/01/23 05:50:48;;;;;;;;;;;20.10;43.10;;;;;;5136839;27;19923;-45
2022/01/23 05:53:16;;;;;;;;;;;20.10;43.10;;;;;;5113807;28;20026;-43
2022/01/23 05:55:43;;;;;;;;;;;20.10;43.10;;;;;;5113307;27;19928;-46
2022/01/23 05:58:10;;;;;;;;;;;20.10;43.10;;;;;;5119195;27;20216;-47
2022/01/23 06:00:37;;;;;;;;;;;20.10;43.10;;;;;;5119512;27;19967;-43
2022/01/23 06:03:03;;;;;;;;;;;20.10;43.10;;;;;;5116398;27;19928;-47
2022/01/23 06:05:30;;;;;;;;;;;20.10;43.10;;;;;;5132583;27;19923;-46
2022/01/23 06:07:57;;;;;;;;;;;20.10;43.10;;;;;;5100052;27;20403;-45
2022/01/23 06:10:27;;;;;;;;;;;20.10;43.10;;;;;;5119884;27;19961;-45
2022/01/23 06:12:54;;;;;;;;;;;20.10;43.10;;;;;;5117891;27;20420;-45
2022/01/23 06:15:21;;;;;;;;;;;20.10;43.10;;;;;;5141102;27;19982;-46
2022/01/23 06:17:47;;;;;;;;;;;20.10;43.10;;;;;;5163031;27;19927;-48
2022/01/23 06:20:15;;;;;;;;;;;20.10;43.10;;;;;;5117214;27;19932;-47
2022/01/23 06:22:43;;;;;;;;;;;20.10;43.10;;;;;;5134198;27;19923;-46
2022/01/23 06:25:12;;;;;;;;;;;20.10;43.10;;;;;;5117986;27;20447;-45
2022/01/23 06:27:41;;;;;;;;;;;20.10;43.10;;;;;;5115420;27;19930;-48
2022/01/23 06:30:08;;;;;;;;;;;20.10;43.10;;;;;;5114382;27;20387;-49
2022/01/23 06:32:35;;;;;;;;;;;20.10;43.10;;;;;;5137221;27;19999;-46
2022/01/23 06:35:02;;;;;;;;;;;20.10;43.10;;;;;;5105264;27;19924;-43
2022/01/23 06:37:28;;;;;;;;;;;20.10;43.10;;;;;;5119001;27;19923;-45
2022/01/23 06:39:55;;;;;;;;;;;20.10;43.10;;;;;;5134392;27;19947;-45
2022/01/23 06:42:22;;;;;;;;;;;20.10;43.10;;;;;;5120128;27;19976;-43
2022/01/23 06:44:51;;;;;;;;;;;20.10;43.10;;;;;;5115204;27;19924;-48
2022/01/23 06:47:19;;;;;;;;;;;20.10;43.10;;;;;;5117391;27;19927;-48
2022/01/23 06:49:45;;;;;;;;;;;20.10;43.10;;;;;;5110309;27;19924;-46
2022/01/23 06:52:12;;;;;;;;;;;20.10;43.10;;;;;;5112590;27;19929;-47
2022/01/23 06:54:39;;;;;;;;;;;20.10;43.10;;;;;;5115264;27;19929;-43
2022/01/23 06:57:06;;;;;;;;;;;20.10;43.10;;;;;;5110089;27;19931;-45
2022/01/23 06:59:33;;;;;;;;;;;20.10;43.10;;;;;;5116053;27;19949;-46
2022/01/23 07:02:01;;;;;;;;;;;20.10;43.10;;;;;;5131237;27;19924;-43
2022/01/23 07:04:27;;;;;;;;;;;20.10;43.10;;;;;;5114601;27;19932;-45
2022/01/23 07:06:54;;;;;;;;;;;20.10;43.10;;;;;;5146933;27;19923;-44
2022/01/23 07:09:21;;;;;;;;;;;20.10;43.10;;;;;;5111666;27;19976;-44
2022/01/23 07:11:48;;;;;;;;;;;20.10;43.10;;;;;;5115570;27;19941;-47
2022/01/23 07:14:15;;;;;;;;;;;20.10;43.10;;;;;;5114871;27;20385;-44
2022/01/23 07:16:42;;;;;;;;;;;20.10;43.10;;;;;;5114247;27;20479;-44
2022/01/23 07:19:10;;;;;;;;;;;20.10;43.10;;;;;;5115737;27;20388;-44
2022/01/23 07:21:36;;;;;;;;;;;20.10;43.10;;;;;;5115872;27;19923;-44
2022/01/23 07:24:03;;;;;;;;;;;20.10;43.10;;;;;;5115149;27;19924;-45
2022/01/23 07:26:31;;;;;;;;;;;20.10;43.10;;;;;;5114271;27;19927;-44
2022/01/23 07:29:01;;;;;;;;;;;20.10;43.10;;;;;;5114984;27;19930;-44
2022/01/23 07:31:57;;;;;;;;;;;20.10;43.70;;;;;;5110587;27;20322;-44
2022/01/23 07:34:25;;;;;;;;;;;20.10;43.10;;;;;;5114879;27;19931;-45
2022/01/23 07:36:52;;;;;;;;;;;20.10;43.10;;;;;;5113689;27;19927;-44
2022/01/23 07:39:19;;;;;;;;;;;20.10;43.10;;;;;;5114092;27;19923;-45
2022/01/23 07:41:45;;;;;;;;;;;20.10;43.10;;;;;;5130553;27;20384;-44
2022/01/23 07:44:12;;;;;;;;;;;20.10;43.10;;;;;;5112824;27;20014;-46
2022/01/23 07:46:39;;;;;;;;;;;20.10;43.10;;;;;;5115846;27;19930;-46
2022/01/23 07:49:05;;;;;;;;;;;20.10;43.10;;;;;;5115149;27;19928;-44
2022/01/23 07:51:33;;;;;;;;;;;20.10;43.20;;;;;;5112035;27;19967;-43
2022/01/23 07:54:00;;;;;;;;;;;20.10;43.20;;;;;;5147028;27;19927;-44
2022/01/23 07:56:27;;;;;;;;;;;20.10;43.10;;;;;;5113701;27;20003;-43
2022/01/23 07:58:54;;;;;;;;;;;20.10;43.10;;;;;;5133171;27;19930;-46
2022/01/23 08:01:20;;;;;;;;;;;20.10;43.10;;;;;;5115087;27;19931;-43
2022/01/23 08:03:47;;;;;;;;;;;20.10;43.20;;;;;;5113921;27;19931;-47
2022/01/23 08:06:15;;;;;;;;;;;20.10;43.20;;;;;;5113504;27;19927;-46
2022/01/23 08:08:44;;;;;;;;;;;20.10;43.10;;;;;;5113533;27;19927;-44
2022/01/23 08:11:11;;;;;;;;;;;20.10;43.10;;;;;;5113140;27;19966;-45
2022/01/23 08:13:38;;;;;;;;;;;20.10;43.10;;;;;;5110410;27;19932;-45
2022/01/23 08:16:05;;;;;;;;;;;20.10;43.20;;;;;;5112009;27;20392;-45
2022/01/23 08:18:32;;;;;;;;;;;20.10;43.10;;;;;;5113803;27;19930;-47
2022/01/23 08:20:58;;;;;;;;;;;20.10;43.10;;;;;;5132844;27;20420;-44
2022/01/23 08:23:27;;;;;;;;;;;20.10;43.10;;;;;;5112182;27;19931;-48
2022/01/23 08:25:55;;;;;;;;;;;20.10;43.10;;;;;;5113440;28;19927;-44
2022/01/23 08:28:21;;;;;;;;;;;20.10;43.10;;;;;;5112757;28;19928;-45
2022/01/23 08:30:48;;;;;;;;;;;20.10;43.10;;;;;;5113879;28;19931;-43
2022/01/23 08:33:15;;;;;;;;;;;20.10;43.10;;;;;;5131385;28;19931;-44
2022/01/23 08:35:44;;;;;;;;;;;20.10;43.20;;;;;;5115248;28;20401;-44
2022/01/23 08:38:13;;;;;;;;;;;20.10;43.20;;;;;;5114579;28;20419;-47
2022/01/23 08:40:58;;;;;;;;;;;20.10;43.10;;;;;;5131122;28;19935;-47
2022/01/23 08:43:26;;;;;;;;;;;20.10;43.20;;;;;;5114593;28;19927;-45
2022/01/23 08:45:53;;;;;;;;;;;20.10;43.10;;;;;;5114818;28;19923;-44
2022/01/23 08:48:19;;;;;;;;;;;20.10;43.20;;;;;;5130043;28;19927;-43
2022/01/23 08:50:46;;;;;;;;;;;20.10;43.20;;;;;;5127146;28;20509;-48
2022/01/23 08:53:12;;;;;;;;;;;20.10;43.20;;;;;;5116300;28;20329;-44
2022/01/23 08:55:39;;;;;;;;;;;20.10;43.20;;;;;;5116063;28;19973;-48
2022/01/23 08:58:06;;;;;;;;;;;20.10;43.20;;;;;;5142076;27;20392;-44
2022/01/23 09:00:34;;;;;;;;;;;20.10;43.10;;;;;;5113974;28;20375;-43
2022/01/23 09:03:01;;;;;;;;;;;20.10;43.20;;;;;;5113971;28;20482;-44
2022/01/23 09:05:30;;;;;;;;;;;20.10;43.10;;;;;;5114608;28;19935;-47
2022/01/23 09:07:57;;;;;;;;;;;20.10;43.10;;;;;;5114023;28;20633;-44
2022/01/23 09:10:27;;;;;;;;;;;20.10;43.20;;;;;;5117452;28;20018;-46
2022/01/23 09:13:06;;;;;;;;;;;20.10;43.20;;;;;;5114171;27;19934;-45
2022/01/23 09:15:34;;;;;;;;;;;20.10;43.20;;;;;;5131571;27;19927;-44
2022/01/23 09:18:01;;;;;;;;;;;20.10;43.20;;;;;;5116682;27;19966;-44
2022/01/23 09:20:28;;;;;;;;;;;20.10;43.20;;;;;;5113655;27;19946;-44
2022/01/23 09:22:55;;;;;;;;;;;20.10;43.20;;;;;;5134326;27;19924;-44
2022/01/23 09:25:21;;;;;;;;;;;20.10;43.20;;;;;;5116345;27;19932;-48
2022/01/23 09:27:48;;;;;;;;;;;20.10;43.20;;;;;;5115156;27;20463;-44
2022/01/23 09:30:20;;;;;;;;;;;20.10;43.20;;;;;;5116266;27;19945;-46
2022/01/23 09:32:48;;;;;;;;;;;20.10;43.20;;;;;;5117896;27;19927;-46
2022/01/23 09:35:15;;;;;;;;;;;20.10;43.20;;;;;;5117546;27;19939;-46
2022/01/23 09:37:42;;;;;;;;;;;20.10;43.20;;;;;;5134572;27;19986;-43
2022/01/23 09:40:09;;;;;;;;;;;20.10;43.20;;;;;;5114730;27;19927;-48
2022/01/23 09:42:37;;;;;;;;;;;20.10;43.20;;;;;;5106267;27;19931;-49
2022/01/23 09:45:05;;;;;;;;;;;20.10;43.20;;;;;;5113032;27;19930;-48
2022/01/23 09:47:31;;;;;;;;;;;20.10;43.10;;;;;;5107873;27;19994;-49
2022/01/23 09:50:03;;;;;;;;;;;20.10;43.00;;;;;;5129651;27;19935;-46
2022/01/23 09:52:32;;;;;;;;;;;20.10;42.80;;;;;;5113536;27;19935;-46
2022/01/23 09:55:01;;;;;;;;;;;20.00;42.60;;;;;;5112567;27;20035;-48
2022/01/23 09:57:30;;;;;;;;;;;20.00;42.50;;;;;;5132431;27;19938;-47
2022/01/23 09:59:57;;;;;;;;;;;20.00;42.50;;;;;;5123897;27;19935;-50
2022/01/23 10:02:24;;;;;;;;;;;19.90;42.40;;;;;;5135590;27;20395;-48
2022/01/23 10:04:50;;;;;;;;;;;19.90;42.10;;;;;;5123074;27;19959;-48
2022/01/23 10:07:19;;;;;;;;;;;19.80;42.20;;;;;;5114536;27;20021;-46
2022/01/23 10:09:46;;;;;;;;;;;19.80;42.20;;;;;;5115467;27;20017;-46
2022/01/23 10:12:13;;;;;;;;;;;19.80;42.20;;;;;;5112475;27;20435;-53
2022/01/23 10:14:40;;;;;;;;;;;19.70;42.20;;;;;;5132025;27;19923;-48
2022/01/23 10:17:09;;;;;;;;;;;19.70;42.20;;;;;;5115766;27;20354;-47
2022/01/23 10:19:36;;;;;;;;;;;19.70;42.20;;;;;;5122374;27;19930;-46
2022/01/23 10:22:05;;;;;;;;;;;19.60;42.20;;;;;;5115459;27;19966;-49
2022/01/23 10:24:34;;;;;;;;;;;19.60;42.30;;;;;;5111535;27;19991;-48
2022/01/23 10:27:01;;;;;;;;;;;19.60;42.30;;;;;;5112140;27;20034;-51
2022/01/23 10:29:31;;;;;;;;;;;19.60;42.30;;;;;;5112671;27;20003;-47
2022/01/23 10:32:02;;;;;;;;;;;19.60;42.30;;;;;;5143281;27;19931;-47
2022/01/23 10:34:39;;;;;;;;;;;19.50;42.20;;;;;;5113884;27;19923;-48
2022/01/23 10:37:06;;;;;;;;;;;19.50;42.20;;;;;;5130164;27;19974;-45
2022/01/23 10:39:40;;;;;;;;;;;19.50;42.20;;;;;;5132104;27;19927;-52
2022/01/23 10:42:28;;;;;;;;;;;19.40;42.30;;;;;;5111781;27;19930;-47
2022/01/23 10:47:48;;;;;;;;;;;19.40;42.30;;;;;;5091829;28;20226;-49
2022/01/23 10:50:15;;;;;;;;;;;19.40;42.30;;;;;;5095598;28;19927;-44
2022/01/23 10:52:43;;;;;;;;;;;19.40;42.40;;;;;;5101094;27;20019;-49
2022/01/23 10:55:24;;;;;;;;;;;19.40;42.40;;;;;;5097836;27;19932;-50
2022/01/23 10:57:53;;;;;;;;;;;19.40;42.40;;;;;;5106393;28;20132;-48
2022/01/23 11:00:21;;;;;;;;;;;19.40;42.40;;;;;;5103483;28;19927;-54
2022/01/23 11:02:48;;;;;;;;;;;19.40;42.30;;;;;;5107911;27;19955;-48
2022/01/23 11:05:16;;;;;;;;;;;19.40;42.30;;;;;;5106234;28;19966;-48
2022/01/23 11:07:43;;;;;;;;;;;19.40;42.30;;;;;;5108712;28;19927;-51
2022/01/23 11:10:11;;;;;;;;;;;19.50;42.40;;;;;;5105527;27;20004;-51
2022/01/23 11:18:06;;;;;;;;;;;19.50;42.40;;;;;;5100113;28;20103;-46
2022/01/23 11:20:34;;;;;;;;;;;19.40;42.30;;;;;;5107937;28;19976;-45
2022/01/23 11:23:02;;;;;;;;;;;19.50;42.40;;;;;;5107012;28;19928;-48
2022/01/23 11:25:29;;;;;;;;;;;19.50;42.40;;;;;;5107061;28;20300;-48
2022/01/23 11:28:03;;;;;;;;;;;19.50;42.40;;;;;;5108223;28;19928;-49
2022/01/23 11:30:36;;;;;;;;;;;19.50;42.50;;;;;;5095746;28;19953;-47
2022/01/23 11:33:03;;;;;;;;;;;19.50;42.50;;;;;;5104962;28;19927;-51
2022/01/23 11:35:30;;;;;;;;;;;19.50;42.50;;;;;;5096297;28;20026;-44
2022/01/23 11:37:57;;;;;;;;;;;19.50;42.50;;;;;;5094812;28;19959;-47
2022/01/23 11:40:35;;;;;;;;;;;19.50;42.50;;;;;;5107267;28;19984;-52
2022/01/23 11:54:05;;;;;;;;;;;19.50;42.50;;;;;;5085286;28;19932;-47
2022/01/23 11:56:35;;;;;;;;;;;19.50;42.50;;;;;;5092880;28;19970;-51
2022/01/23 11:59:12;;;;;;;;;;;19.50;42.60;;;;;;5102920;28;19981;-51
2022/01/23 12:01:40;;;;;;;;;;;19.50;42.60;;;;;;5101014;28;19924;-49
2022/01/23 12:04:16;;;;;;;;;;;19.50;42.70;;;;;;5122050;27;19927;-48
2022/01/23 12:06:45;;;;;;;;;;;19.50;42.70;;;;;;5107470;28;19928;-44
2022/01/23 12:09:17;;;;;;;;;;;19.50;42.70;;;;;;5089476;28;19947;-50
2022/01/23 12:11:53;;;;;;;;;;;19.50;42.70;;;;;;5097630;28;19964;-45
2022/01/23 12:17:20;;;;;;;;;;;19.50;42.80;;;;;;5101499;28;19946;-50
2022/01/23 12:19:50;;;;;;;;;;;19.50;42.90;;;;;;5106614;28;19928;-45
2022/01/23 12:22:32;;;;;;;;;;;19.50;42.90;;;;;;5099752;27;19931;-48
2022/01/23 12:25:00;;;;;;;;;;;19.50;43.40;;;;;;5100113;28;19931;-49
2022/01/23 12:27:27;;;;;;;;;;;19.50;42.80;;;;;;5100449;28;19928;-47
2022/01/23 12:29:55;;;;;;;;;;;19.50;42.80;;;;;;5103758;28;19932;-51
2022/01/23 12:32:28;;;;;;;;;;;19.50;42.80;;;;;;5098335;28;19955;-48
2022/01/23 12:34:56;;;;;;;;;;;19.50;42.90;;;;;;5099603;28;19993;-49
2022/01/23 12:37:23;;;;;;;;;;;19.50;42.80;;;;;;5095386;28;19928;-49
2022/01/23 12:40:04;;;;;;;;;;;19.50;42.80;;;;;;5099303;28;19950;-51
2022/01/23 12:42:46;;;;;;;;;;;19.50;42.80;;;;;;5098865;28;19943;-48
2022/01/23 12:45:28;;;;;;;;;;;19.50;42.80;;;;;;5131944;27;19973;-46
2022/01/23 12:48:10;;;;;;;;;;;19.50;42.80;;;;;;5102286;28;19928;-48
2022/01/23 12:50:47;;;;;;;;;;;19.50;42.70;;;;;;5109862;27;19927;-48
2022/01/23 12:53:14;;;;;;;;;;;19.50;42.70;;;;;;5100180;27;19974;-47
2022/01/23 12:55:50;;;;;;;;;;;19.50;42.70;;;;;;5126729;27;19990;-51
2022/01/23 12:58:18;;;;;;;;;;;19.50;42.70;;;;;;5127446;27;19995;-50
2022/01/23 13:00:45;;;;;;;;;;;19.50;42.70;;;;;;5124670;27;20001;-46
2022/01/23 13:03:13;;;;;;;;;;;19.50;42.70;;;;;;5105020;27;19935;-53
2022/01/23 13:05:43;;;;;;;;;;;19.50;42.70;;;;;;5141382;27;19927;-49
2022/01/23 13:08:22;;;;;;;;;;;19.50;42.70;;;;;;5108526;27;19924;-51
2022/01/23 13:11:07;;;;;;;;;;;19.50;42.70;;;;;;5109289;27;19963;-47
2022/01/23 13:13:38;;;;;;;;;;;19.50;42.70;;;;;;5111612;27;19935;-46
2022/01/23 13:16:21;;;;;;;;;;;19.50;42.70;;;;;;5109885;27;19927;-47
2022/01/23 13:19:03;;;;;;;;;;;19.50;42.70;;;;;;5132581;27;20063;-46
2022/01/23 13:27:34;;;;;;;;;;;19.50;42.60;;;;;;5107776;27;20384;-49
2022/01/23 13:30:11;;;;;;;;;;;19.50;42.60;;;;;;5101711;27;19924;-49
2022/01/23 13:32:43;;;;;;;;;;;19.50;42.60;;;;;;5109608;27;19984;-46
2022/01/23 13:35:13;;;;;;;;;;;19.50;42.60;;;;;;5105068;27;19927;-49
2022/01/23 13:37:40;;;;;;;;;;;19.50;42.60;;;;;;5125986;27;19928;-50
2022/01/23 13:40:10;;;;;;;;;;;19.50;42.60;;;;;;5142061;27;19924;-47
2022/01/23 13:53:49;;;;;;;;;;;19.50;42.50;;;;;;5110364;27;20419;-48
2022/01/23 13:59:06;;;;;;;;;;;19.50;42.50;;;;;;5103842;27;20073;-45
2022/01/23 14:01:47;;;;;;;;;;;19.50;42.50;;;;;;5108448;27;19976;-50
2022/01/23 14:04:14;;;;;;;;;;;19.50;42.50;;;;;;5102823;28;19987;-47
2022/01/23 14:06:41;;;;;;;;;;;19.50;42.50;;;;;;5143029;27;19924;-47
2022/01/23 14:09:09;;;;;;;;;;;19.50;42.50;;;;;;5102757;27;19976;-47
2022/01/23 14:11:37;;;;;;;;;;;19.50;42.50;;;;;;5101169;28;19935;-50
2022/01/23 14:14:09;;;;;;;;;;;19.50;42.50;;;;;;5098968;27;19946;-49
2022/01/23 14:16:36;;;;;;;;;;;19.50;42.50;;;;;;5107180;27;19935;-52
2022/01/23 14:19:12;;;;;;;;;;;19.50;42.50;;;;;;5111462;27;19930;-47
2022/01/23 14:21:40;;;;;;;;;;;19.50;42.50;;;;;;5116369;27;19938;-54
2022/01/23 14:24:07;;;;;;;;;;;19.50;42.50;;;;;;5096963;27;19952;-44
2022/01/23 14:26:34;;;;;;;;;;;19.50;41.90;;;;;;5107078;27;19938;-45
2022/01/23 14:29:05;;;;;;;;;;;19.50;42.20;;;;;;5123280;27;20024;-44
2022/01/23 14:31:37;;;;;;;;;;;19.50;42.30;;;;;;5122300;27;19953;-47
2022/01/23 14:34:05;;;;;;;;;;;19.50;42.40;;;;;;5108283;28;19924;-49
2022/01/23 14:36:33;;;;;;;;;;;19.50;42.50;;;;;;5100488;27;19928;-45
2022/01/23 14:39:00;;;;;;;;;;;19.50;42.50;;;;;;5129213;27;20015;-44
2022/01/23 14:41:28;;;;;;;;;;;19.50;42.50;;;;;;5103662;27;19928;-44
2022/01/23 14:43:55;;;;;;;;;;;19.50;42.60;;;;;;5110718;27;20014;-46
2022/01/23 14:46:24;;;;;;;;;;;19.60;42.60;;;;;;5107311;27;19936;-48
2022/01/23 14:48:58;;;;;;;;;;;19.60;42.70;;;;;;5124400;27;19927;-46
2022/01/23 14:51:26;;;;;;;;;;;19.60;42.70;;;;;;5108534;27;19928;-44
2022/01/23 14:53:53;;;;;;;;;;;19.60;42.60;;;;;;5112096;27;19924;-45
2022/01/23 14:56:20;;;;;;;;;;;19.60;42.60;;;;;;5106455;27;19963;-48
2022/01/23 14:58:47;;;;;;;;;;;19.60;42.70;;;;;;5121955;27;19989;-44
2022/01/23 15:01:14;;;;;;;;;;;19.60;42.70;;;;;;5110670;27;19955;-45
2022/01/23 15:03:43;;;;;;;;;;;19.60;42.70;;;;;;5109671;27;19961;-45
2022/01/23 15:06:11;;;;;;;;;;;19.60;42.60;;;;;;5110068;27;19962;-47
2022/01/23 15:08:38;;;;;;;;;;;19.60;42.70;;;;;;5100034;28;20000;-47
2022/01/23 15:11:05;;;;;;;;;;;19.70;42.80;;;;;;5089786;28;19927;-45
2022/01/23 15:13:33;;;;;;;;;;;19.70;42.80;;;;;;5125712;27;19984;-48
2022/01/23 15:16:01;;;;;;;;;;;19.60;42.70;;;;;;5112267;27;19927;-45
2022/01/23 15:18:28;;;;;;;;;;;19.70;42.80;;;;;;5128893;27;19924;-47
2022/01/23 15:20:57;;;;;;;;;;;19.70;42.80;;;;;;5133730;27;19963;-44
2022/01/23 15:23:23;;;;;;;;;;;19.70;42.80;;;;;;5093518;27;19928;-45
2022/01/23 15:25:50;;;;;;;;;;;19.70;42.70;;;;;;5108846;27;19923;-43
2022/01/23 15:28:17;;;;;;;;;;;19.70;42.70;;;;;;5088976;28;19963;-45
2022/01/23 15:30:44;;;;;;;;;;;19.70;42.80;;;;;;5108215;27;20035;-44
2022/01/23 15:33:11;;;;;;;;;;;19.70;43.30;;;;;;5109365;27;20470;-47
2022/01/23 15:35:43;;;;;;;;;;;19.70;42.70;;;;;;5108788;27;20022;-45
2022/01/23 15:38:12;;;;;;;;;;;19.70;42.70;;;;;;5136716;27;19931;-45
2022/01/23 15:40:39;;;;;;;;;;;19.70;42.70;;;;;;5108946;27;20617;-45
2022/01/23 15:43:05;;;;;;;;;;;19.70;42.70;;;;;;5095020;28;19927;-44
2022/01/23 15:45:32;;;;;;;;;;;19.70;42.70;;;;;;5089647;28;20406;-44
2022/01/23 15:47:59;;;;;;;;;;;19.80;42.80;;;;;;5105898;27;19923;-48
2022/01/23 15:50:26;;;;;;;;;;;19.70;42.80;;;;;;5110195;27;20376;-45
2022/01/23 15:52:53;;;;;;;;;;;19.80;42.80;;;;;;5119727;27;19928;-43
2022/01/23 15:55:24;;;;;;;;;;;19.80;42.80;;;;;;5123088;27;20109;-49
2022/01/23 15:57:51;;;;;;;;;;;19.80;42.80;;;;;;5123182;27;20268;-45
2022/01/23 16:00:18;;;;;;;;;;;19.80;42.80;;;;;;5092284;28;20441;-43
2022/01/23 16:02:45;;;;;;;;;;;19.80;42.80;;;;;;5132202;27;19924;-43
2022/01/23 16:05:12;;;;;;;;;;;19.80;42.90;;;;;;5108753;27;20521;-46
2022/01/23 16:07:39;;;;;;;;;;;19.80;42.80;;;;;;5100061;28;19950;-45
2022/01/23 16:10:06;;;;;;;;;;;19.80;42.90;;;;;;5088663;28;19999;-43
2022/01/23 16:12:35;;;;;;;;;;;19.80;42.80;;;;;;5089774;28;20385;-45
2022/01/23 16:15:02;;;;;;;;;;;19.80;42.80;;;;;;5107312;28;19927;-43
2022/01/23 16:17:29;;;;;;;;;;;19.80;42.80;;;;;;5122416;27;20026;-44
2022/01/23 16:19:58;;;;;;;;;;;19.80;42.80;;;;;;5103227;27;19923;-46
2022/01/23 16:22:25;;;;;;;;;;;19.80;42.80;;;;;;5098681;27;19967;-44
2022/01/23 16:24:52;;;;;;;;;;;19.80;42.90;;;;;;5096801;28;20026;-45
2022/01/23 16:27:18;;;;;;;;;;;19.80;42.90;;;;;;5133412;27;19923;-45
2022/01/23 16:29:47;;;;;;;;;;;19.80;42.90;;;;;;5108574;28;20011;-47
2022/01/23 16:32:14;;;;;;;;;;;19.80;42.90;;;;;;5106610;28;20333;-44
2022/01/23 16:34:41;;;;;;;;;;;19.80;42.90;;;;;;5108372;28;20392;-48
2022/01/23 16:37:08;;;;;;;;;;;19.80;42.90;;;;;;5127480;28;19923;-43
2022/01/23 16:39:35;;;;;;;;;;;19.80;42.90;;;;;;5144425;27;19924;-43
2022/01/23 16:42:01;;;;;;;;;;;19.80;42.90;;;;;;5097733;28;19928;-44
2022/01/23 16:44:28;;;;;;;;;;;19.80;42.90;;;;;;5142939;27;20064;-45
2022/01/23 16:46:57;;;;;;;;;;;19.80;42.90;;;;;;5111061;28;19927;-47
2022/01/23 16:49:23;;;;;;;;;;;19.80;42.90;;;;;;5108915;28;19927;-47
2022/01/23 16:51:50;;;;;;;;;;;19.80;42.90;;;;;;5126635;28;19924;-43
2022/01/23 16:54:17;;;;;;;;;;;19.80;42.90;;;;;;5095778;28;19924;-46
2022/01/23 16:56:45;;;;;;;;;;;19.90;42.90;;;;;;5109525;28;20086;-44
2022/01/23 16:59:12;;;;;;;;;;;19.90;43.00;;;;;;5108685;28;20089;-45
2022/01/23 17:01:39;;;;;;;;;;;19.80;42.90;;;;;;5091380;28;19935;-42
2022/01/23 17:04:07;;;;;;;;;;;19.90;43.00;;;;;;5108239;28;20384;-43
2022/01/23 17:06:38;;;;;;;;;;;19.90;43.00;;;;;;5118100;28;19946;-45
2022/01/23 17:09:05;;;;;;;;;;;19.90;43.00;;;;;;5112245;28;19923;-51
2022/01/23 17:11:32;;;;;;;;;;;19.90;43.00;;;;;;5108774;28;19973;-46